Time;durP1;ratioP1;P1;durP2;ratioP2;P2;SDS_P1;SDS_P2;PMS_P1;PMS_P2;Temp;Humidity;BMP_temperature;BMP_pressure;BME280_temperature;BME280_humidity;BME280_pressure;Samples;Min_cycle;Max_cycle;Signal;HPM_P1;HPM_P2
2022/12/31 00:00:37;;;;;;;1.88;1.60;;;;;;;;;;5055180;28;20428;-85
2022/12/31 00:03:03;;;;;;;2.40;1.80;;;;;;;;;;5055344;28;20900;-86
2022/12/31 00:05:32;;;;;;;1.80;1.70;;;;;;;;;;5055242;28;20401;-85
2022/12/31 00:07:58;;;;;;;1.63;1.52;;;;;;;;;;5055218;28;20381;-87
2022/12/31 00:10:24;;;;;;;1.77;1.67;;;;;;;;;;5055070;28;20384;-86
2022/12/31 00:12:50;;;;;;;2.45;1.70;;;;;;;;;;5037170;28;20397;-87
2022/12/31 00:15:17;;;;;;;1.58;1.48;;;;;;;;;;5055140;28;20393;-86
2022/12/31 00:17:43;;;;;;;1.70;1.60;;;;;;;;;;5051998;28;20381;-87
2022/12/31 00:20:09;;;;;;;1.80;1.45;;;;;;;;;;5055026;28;20477;-86
2022/12/31 00:22:36;;;;;;;1.85;1.50;;;;;;;;;;5055086;28;20416;-87
2022/12/31 00:25:02;;;;;;;1.80;1.63;;;;;;;;;;5054846;28;20890;-86
2022/12/31 00:27:31;;;;;;;1.73;1.58;;;;;;;;;;5054941;28;20416;-87
2022/12/31 00:29:57;;;;;;;1.48;1.38;;;;;;;;;;5054771;28;20439;-87
2022/12/31 00:32:23;;;;;;;1.58;1.38;;;;;;;;;;5054757;28;20859;-87
2022/12/31 00:34:49;;;;;;;1.35;1.23;;;;;;;;;;5036845;28;20765;-86
2022/12/31 00:37:15;;;;;;;1.65;1.40;;;;;;;;;;5054782;28;20393;-87
2022/12/31 00:39:41;;;;;;;2.08;1.40;;;;;;;;;;5044014;28;20407;-86
2022/12/31 00:42:07;;;;;;;1.30;1.15;;;;;;;;;;5053998;28;20397;-86
2022/12/31 00:44:33;;;;;;;1.63;1.40;;;;;;;;;;5054535;28;20477;-86
2022/12/31 00:46:59;;;;;;;1.70;1.35;;;;;;;;;;5054527;28;20378;-87
2022/12/31 00:49:25;;;;;;;1.58;1.27;;;;;;;;;;5043481;28;20564;-87
2022/12/31 00:51:51;;;;;;;1.23;1.00;;;;;;;;;;5053628;28;20735;-86
2022/12/31 00:54:17;;;;;;;1.05;1.00;;;;;;;;;;5054350;28;20385;-86
2022/12/31 00:56:43;;;;;;;0.98;0.88;;;;;;;;;;5054392;28;20393;-85
2022/12/31 00:59:09;;;;;;;1.33;0.73;;;;;;;;;;5054344;28;20891;-85
2022/12/31 01:01:36;;;;;;;0.70;0.70;;;;;;;;;;5054193;28;20508;-86
2022/12/31 01:04:13;;;;;;;0.65;0.65;;;;;;;;;;5054196;28;20411;-85
2022/12/31 01:06:40;;;;;;;0.90;0.70;;;;;;;;;;5052313;28;20373;-85
2022/12/31 01:09:06;;;;;;;0.70;0.70;;;;;;;;;;5054158;28;20465;-86
2022/12/31 01:11:32;;;;;;;0.98;0.68;;;;;;;;;;5054076;28;20460;-85
2022/12/31 01:14:00;;;;;;;1.05;0.70;;;;;;;;;;5054056;28;20869;-87
2022/12/31 01:16:28;;;;;;;0.70;0.70;;;;;;;;;;5053978;28;20468;-86
2022/12/31 01:18:54;;;;;;;1.05;0.75;;;;;;;;;;5036322;28;20898;-86
2022/12/31 01:21:20;;;;;;;1.10;0.70;;;;;;;;;;5053894;28;20916;-86
2022/12/31 01:23:46;;;;;;;0.97;0.70;;;;;;;;;;5053810;28;20441;-86
2022/12/31 01:26:13;;;;;;;0.70;0.70;;;;;;;;;;5053820;28;20377;-86
2022/12/31 01:28:40;;;;;;;1.70;0.70;;;;;;;;;;5052153;28;20724;-87
2022/12/31 01:31:10;;;;;;;0.98;0.85;;;;;;;;;;5047137;28;20373;-86
2022/12/31 01:33:36;;;;;;;0.60;0.50;;;;;;;;;;5053583;28;20739;-87
2022/12/31 01:36:03;;;;;;;0.98;0.80;;;;;;;;;;5053702;28;20377;-87
2022/12/31 01:38:29;;;;;;;1.02;0.60;;;;;;;;;;5053593;28;20386;-86
2022/12/31 01:40:55;;;;;;;0.98;0.70;;;;;;;;;;5053524;28;20438;-86
2022/12/31 01:43:21;;;;;;;1.35;0.50;;;;;;;;;;5053418;28;20454;-86
2022/12/31 01:45:50;;;;;;;0.80;0.50;;;;;;;;;;5053354;28;20854;-86
2022/12/31 01:48:19;;;;;;;1.25;0.80;;;;;;;;;;5053482;28;20377;-86
2022/12/31 01:50:46;;;;;;;1.40;1.00;;;;;;;;;;5053196;28;20373;-86
2022/12/31 01:53:12;;;;;;;2.50;1.00;;;;;;;;;;5053335;28;20416;-87
2022/12/31 01:55:46;;;;;;;0.95;0.85;;;;;;;;;;5053246;28;20396;-86
2022/12/31 01:58:18;;;;;;;1.20;0.90;;;;;;;;;;5053230;28;20472;-85
2022/12/31 02:00:44;;;;;;;0.73;0.73;;;;;;;;;;5052885;28;20410;-86
2022/12/31 02:03:11;;;;;;;0.77;0.70;;;;;;;;;;5053134;28;20413;-85
2022/12/31 02:05:40;;;;;;;0.95;0.63;;;;;;;;;;5053045;28;20408;-86
2022/12/31 02:08:06;;;;;;;1.20;0.77;;;;;;;;;;5053003;28;20377;-86
2022/12/31 02:10:32;;;;;;;1.30;0.68;;;;;;;;;;5052911;28;20405;-85
2022/12/31 02:12:58;;;;;;;0.50;0.50;;;;;;;;;;5039327;28;20373;-86
2022/12/31 02:15:32;;;;;;;0.65;0.43;;;;;;;;;;5052957;28;20385;-86
2022/12/31 02:18:14;;;;;;;0.70;0.70;;;;;;;;;;5052844;28;20423;-86
2022/12/31 02:20:46;;;;;;;0.60;0.60;;;;;;;;;;5052764;28;20382;-86
2022/12/31 02:23:25;;;;;;;0.50;0.50;;;;;;;;;;5052673;28;20390;-87
2022/12/31 02:26:10;;;;;;;1.00;0.60;;;;;;;;;;5052645;28;20405;-86
2022/12/31 02:28:54;;;;;;;0.60;0.50;;;;;;;;;;5052606;28;20912;-86
2022/12/31 02:31:30;;;;;;;1.05;0.60;;;;;;;;;;5052400;28;20385;-86
2022/12/31 02:33:58;;;;;;;1.20;0.80;;;;;;;;;;5052636;28;20377;-85
2022/12/31 02:36:25;;;;;;;1.20;0.77;;;;;;;;;;5052442;28;20382;-86
2022/12/31 02:38:52;;;;;;;0.88;0.80;;;;;;;;;;5052366;28;20381;-86
2022/12/31 02:44:18;;;;;;;0.63;0.60;;;;;;;;;;5052252;28;20475;-86
2022/12/31 02:46:50;;;;;;;1.50;0.80;;;;;;;;;;5046430;28;20401;-86
2022/12/31 02:49:22;;;;;;;0.77;0.77;;;;;;;;;;5048388;28;20464;-86
2022/12/31 02:51:58;;;;;;;1.00;0.90;;;;;;;;;;5043311;28;20866;-86
2022/12/31 02:54:36;;;;;;;1.40;1.30;;;;;;;;;;5034514;28;20390;-86
2022/12/31 02:57:10;;;;;;;1.15;1.08;;;;;;;;;;5052074;28;20390;-86
2022/12/31 03:02:24;;;;;;;1.02;1.00;;;;;;;;;;5034132;28;20490;-86
2022/12/31 03:04:55;;;;;;;1.00;0.90;;;;;;;;;;5051336;28;20499;-86
2022/12/31 03:07:25;;;;;;;0.80;0.80;;;;;;;;;;5051221;28;20385;-86
2022/12/31 03:09:52;;;;;;;1.80;0.82;;;;;;;;;;5051764;28;20460;-86
2022/12/31 03:15:05;;;;;;;1.50;0.90;;;;;;;;;;5051356;28;20426;-87
2022/12/31 03:17:31;;;;;;;1.35;0.90;;;;;;;;;;5051418;28;20446;-86
2022/12/31 03:22:42;;;;;;;1.47;0.80;;;;;;;;;;5051891;28;20365;-86
2022/12/31 03:25:32;;;;;;;0.77;0.75;;;;;;;;;;5051698;28;20402;-86
2022/12/31 03:27:59;;;;;;;1.13;0.80;;;;;;;;;;5052008;28;20782;-86
2022/12/31 03:30:26;;;;;;;1.70;0.80;;;;;;;;;;5051485;28;20374;-86
2022/12/31 03:32:52;;;;;;;0.70;0.70;;;;;;;;;;5048932;28;20863;-86
2022/12/31 03:35:19;;;;;;;2.20;0.90;;;;;;;;;;5051586;28;20885;-87
2022/12/31 03:37:46;;;;;;;1.00;0.90;;;;;;;;;;5051629;28;20382;-86
2022/12/31 03:40:13;;;;;;;0.93;0.90;;;;;;;;;;5051456;28;20385;-86
2022/12/31 03:42:39;;;;;;;1.00;0.80;;;;;;;;;;5051517;28;20385;-85
2022/12/31 03:45:05;;;;;;;0.95;0.85;;;;;;;;;;5033488;28;20401;-86
2022/12/31 03:47:31;;;;;;;1.10;0.90;;;;;;;;;;5051413;28;20448;-86
2022/12/31 03:49:57;;;;;;;1.00;0.90;;;;;;;;;;5051426;28;20863;-86
2022/12/31 03:52:23;;;;;;;1.00;0.90;;;;;;;;;;5033752;28;20389;-86
2022/12/31 03:54:49;;;;;;;1.27;1.17;;;;;;;;;;5051485;28;20454;-86
2022/12/31 03:57:15;;;;;;;1.58;1.10;;;;;;;;;;5051422;28;20420;-86
2022/12/31 03:59:41;;;;;;;1.40;1.30;;;;;;;;;;5033328;28;20424;-86
2022/12/31 04:02:07;;;;;;;1.40;1.10;;;;;;;;;;5049681;28;20428;-87
2022/12/31 04:04:33;;;;;;;1.83;0.82;;;;;;;;;;5050576;28;20451;-87
2022/12/31 04:06:59;;;;;;;0.90;0.70;;;;;;;;;;5051283;28;20385;-86
2022/12/31 04:09:25;;;;;;;1.67;0.90;;;;;;;;;;5051157;28;20377;-85
2022/12/31 04:11:51;;;;;;;1.30;1.20;;;;;;;;;;5051275;28;20381;-86
2022/12/31 04:14:17;;;;;;;1.30;1.20;;;;;;;;;;5051180;28;20885;-86
2022/12/31 04:16:44;;;;;;;1.40;1.10;;;;;;;;;;5051182;28;20377;-86
2022/12/31 04:19:10;;;;;;;3.20;1.50;;;;;;;;;;5051249;28;20458;-86
2022/12/31 04:21:36;;;;;;;2.13;1.10;;;;;;;;;;5051215;28;20427;-86
2022/12/31 04:24:02;;;;;;;1.40;1.30;;;;;;;;;;5051146;28;20917;-85
2022/12/31 04:26:28;;;;;;;1.40;1.30;;;;;;;;;;5053241;28;20384;-86
2022/12/31 04:28:54;;;;;;;1.63;1.52;;;;;;;;;;5054901;28;20386;-86
2022/12/31 04:31:20;;;;;;;2.30;1.67;;;;;;;;;;5054764;28;20381;-86
2022/12/31 04:33:46;;;;;;;1.90;1.77;;;;;;;;;;5055129;28;20374;-86
2022/12/31 04:36:12;;;;;;;1.50;1.40;;;;;;;;;;5036882;28;20393;-86
2022/12/31 04:38:38;;;;;;;1.83;1.10;;;;;;;;;;5052807;28;20410;-87
2022/12/31 04:41:16;;;;;;;1.30;1.20;;;;;;;;;;5054668;28;20448;-86
2022/12/31 04:43:49;;;;;;;1.33;1.20;;;;;;;;;;5054554;28;20384;-86
2022/12/31 04:46:15;;;;;;;1.70;1.10;;;;;;;;;;5051839;28;20400;-86
2022/12/31 04:48:42;;;;;;;1.88;1.30;;;;;;;;;;5054488;28;20708;-86
2022/12/31 04:51:08;;;;;;;1.20;0.80;;;;;;;;;;5054075;28;20464;-86
2022/12/31 04:53:34;;;;;;;1.52;0.90;;;;;;;;;;5048405;28;20420;-87
2022/12/31 04:56:00;;;;;;;1.25;1.13;;;;;;;;;;5054333;28;20785;-86
2022/12/31 04:58:26;;;;;;;1.20;1.10;;;;;;;;;;5046832;28;20390;-86
2022/12/31 05:00:54;;;;;;;1.10;1.00;;;;;;;;;;5041980;28;20741;-86
2022/12/31 05:03:20;;;;;;;1.42;1.00;;;;;;;;;;5047029;28;20378;-87
2022/12/31 05:05:48;;;;;;;1.80;1.02;;;;;;;;;;5053833;28;20523;-87
2022/12/31 05:08:14;;;;;;;2.40;1.10;;;;;;;;;;5054035;28;20727;-87
2022/12/31 05:10:41;;;;;;;2.42;1.02;;;;;;;;;;5053897;28;20431;-87
2022/12/31 05:13:07;;;;;;;1.70;0.80;;;;;;;;;;5053416;28;20378;-87
2022/12/31 05:15:33;;;;;;;2.40;0.90;;;;;;;;;;5054083;28;20384;-87
2022/12/31 05:17:59;;;;;;;2.90;1.03;;;;;;;;;;5036351;28;20393;-86
2022/12/31 05:20:25;;;;;;;1.83;1.00;;;;;;;;;;5053940;28;20384;-86
2022/12/31 05:22:51;;;;;;;1.08;0.90;;;;;;;;;;5053796;28;20805;-86
2022/12/31 05:25:17;;;;;;;0.90;0.90;;;;;;;;;;5053781;28;20401;-87
2022/12/31 05:27:43;;;;;;;1.30;0.70;;;;;;;;;;5053817;28;20851;-86
2022/12/31 05:30:09;;;;;;;1.10;0.80;;;;;;;;;;5053657;28;20416;-86
2022/12/31 05:32:35;;;;;;;0.80;0.80;;;;;;;;;;5053647;28;20396;-87
2022/12/31 05:35:01;;;;;;;1.30;0.88;;;;;;;;;;5053638;28;20402;-86
2022/12/31 05:37:28;;;;;;;2.20;0.90;;;;;;;;;;5050194;28;20401;-86
2022/12/31 05:39:54;;;;;;;0.95;0.80;;;;;;;;;;5048520;28;20381;-87
2022/12/31 05:42:21;;;;;;;0.80;0.80;;;;;;;;;;5053584;28;20396;-86
2022/12/31 05:44:47;;;;;;;1.10;0.90;;;;;;;;;;5053405;28;20488;-86
2022/12/31 05:47:13;;;;;;;0.80;0.70;;;;;;;;;;5053413;28;20918;-86
2022/12/31 05:49:38;;;;;;;1.20;0.80;;;;;;;;;;5053393;28;20468;-86
2022/12/31 05:52:05;;;;;;;0.80;0.57;;;;;;;;;;5053367;28;20473;-86
2022/12/31 05:54:31;;;;;;;0.80;0.80;;;;;;;;;;5053330;28;20389;-87
2022/12/31 05:56:57;;;;;;;1.15;0.80;;;;;;;;;;5053326;28;20400;-86
2022/12/31 05:59:23;;;;;;;1.75;1.05;;;;;;;;;;5053031;28;20393;-86
2022/12/31 06:01:50;;;;;;;1.60;0.85;;;;;;;;;;5046023;28;20414;-86
2022/12/31 06:04:16;;;;;;;8.43;5.97;;;;;;;;;;5048656;28;20405;-87
2022/12/31 06:06:42;;;;;;;2.10;1.13;;;;;;;;;;5053048;28;20378;-86
2022/12/31 06:09:08;;;;;;;3.30;1.90;;;;;;;;;;5052935;28;20448;-86
2022/12/31 06:11:34;;;;;;;1.33;1.23;;;;;;;;;;5053050;28;20374;-86
2022/12/31 06:14:00;;;;;;;4.00;3.70;;;;;;;;;;5052883;28;20377;-86
2022/12/31 06:16:27;;;;;;;3.08;1.88;;;;;;;;;;5052857;28;20893;-86
2022/12/31 06:18:53;;;;;;;15.03;12.93;;;;;;;;;;5054887;28;20382;-85
2022/12/31 06:21:20;;;;;;;12.25;11.02;;;;;;;;;;5043737;28;20385;-87
2022/12/31 06:23:46;;;;;;;1.73;1.60;;;;;;;;;;5054884;28;20390;-86
2022/12/31 06:26:12;;;;;;;4.28;3.88;;;;;;;;;;5052532;28;20421;-86
2022/12/31 06:28:38;;;;;;;7.82;7.22;;;;;;;;;;5052757;28;20392;-86
2022/12/31 06:31:06;;;;;;;6.80;6.20;;;;;;;;;;5052308;28;20386;-86
2022/12/31 06:33:33;;;;;;;6.30;5.45;;;;;;;;;;5052320;28;20846;-87
2022/12/31 06:35:59;;;;;;;6.45;5.90;;;;;;;;;;5049363;28;20500;-86
2022/12/31 06:38:26;;;;;;;4.63;3.83;;;;;;;;;;5034657;28;20398;-86
2022/12/31 06:40:52;;;;;;;1.70;1.30;;;;;;;;;;5052382;28;20370;-87
2022/12/31 06:43:18;;;;;;;3.20;2.78;;;;;;;;;;5041761;28;20853;-87
2022/12/31 06:45:44;;;;;;;4.82;4.43;;;;;;;;;;5052175;28;20787;-86
2022/12/31 06:48:11;;;;;;;3.60;3.00;;;;;;;;;;5051528;28;20470;-86
2022/12/31 06:50:37;;;;;;;2.85;2.65;;;;;;;;;;5052191;28;20882;-86
2022/12/31 06:53:03;;;;;;;2.77;2.57;;;;;;;;;;5052130;28;20381;-87
2022/12/31 06:55:29;;;;;;;1.55;1.40;;;;;;;;;;5052205;28;20423;-86
2022/12/31 06:57:55;;;;;;;1.63;1.47;;;;;;;;;;5050262;28;20404;-87
2022/12/31 07:00:21;;;;;;;1.80;1.50;;;;;;;;;;5052104;28;20421;-86
2022/12/31 07:03:00;;;;;;;1.70;1.60;;;;;;;;;;5052053;28;20890;-87
2022/12/31 07:05:41;;;;;;;2.15;1.30;;;;;;;;;;5052008;28;20891;-87
2022/12/31 07:08:26;;;;;;;1.83;1.63;;;;;;;;;;5051942;28;20377;-88
2022/12/31 07:10:55;;;;;;;2.70;1.80;;;;;;;;;;5052653;28;20370;-87
2022/12/31 07:13:45;;;;;;;1.63;1.45;;;;;;;;;;5034939;28;20382;-87
2022/12/31 07:16:21;;;;;;;1.48;1.10;;;;;;;;;;5039043;28;20621;-86
2022/12/31 07:18:52;;;;;;;1.45;1.35;;;;;;;;;;5051811;28;20461;-86
2022/12/31 07:21:21;;;;;;;1.43;0.90;;;;;;;;;;5052342;28;20392;-86
2022/12/31 07:23:47;;;;;;;2.33;1.50;;;;;;;;;;5052081;28;20377;-86
2022/12/31 07:26:16;;;;;;;1.90;1.80;;;;;;;;;;5051461;28;20488;-86
2022/12/31 07:29:03;;;;;;;2.10;1.90;;;;;;;;;;5051612;28;20374;-87
2022/12/31 07:31:39;;;;;;;3.05;2.85;;;;;;;;;;5051548;28;20389;-87
2022/12/31 07:34:19;;;;;;;3.80;3.40;;;;;;;;;;5051580;28;20447;-86
2022/12/31 07:36:48;;;;;;;3.63;3.30;;;;;;;;;;5051376;28;20384;-86
2022/12/31 07:39:18;;;;;;;3.33;2.97;;;;;;;;;;5047357;28;20851;-86
2022/12/31 07:41:50;;;;;;;3.67;3.38;;;;;;;;;;5051416;28;20393;-87
2022/12/31 07:44:28;;;;;;;3.17;2.90;;;;;;;;;;5051403;28;20475;-87
2022/12/31 07:46:58;;;;;;;3.37;3.07;;;;;;;;;;5051512;28;20460;-87
2022/12/31 07:49:25;;;;;;;4.00;3.25;;;;;;;;;;5051248;28;20881;-86
2022/12/31 07:51:51;;;;;;;2.90;2.60;;;;;;;;;;5051421;28;20465;-87
2022/12/31 07:54:17;;;;;;;2.58;2.38;;;;;;;;;;5051389;28;20894;-86
2022/12/31 07:56:44;;;;;;;2.03;1.92;;;;;;;;;;5051477;28;20388;-87
2022/12/31 07:59:29;;;;;;;2.30;2.10;;;;;;;;;;5051407;28;20382;-87
2022/12/31 08:02:18;;;;;;;1.85;1.75;;;;;;;;;;5055443;28;20399;-86
2022/12/31 08:04:43;;;;;;;1.70;1.60;;;;;;;;;;5055321;28;20429;-86
2022/12/31 08:07:09;;;;;;;1.60;1.50;;;;;;;;;;5052293;28;20435;-87
2022/12/31 08:09:42;;;;;;;1.63;1.52;;;;;;;;;;5055213;28;20423;-86
2022/12/31 08:12:08;;;;;;;3.35;1.75;;;;;;;;;;5055217;28;20492;-86
2022/12/31 08:14:37;;;;;;;2.05;1.85;;;;;;;;;;5055181;28;20396;-86
2022/12/31 08:17:03;;;;;;;2.10;1.80;;;;;;;;;;5055114;28;20381;-87
2022/12/31 08:19:30;;;;;;;3.70;2.17;;;;;;;;;;5055020;28;20483;-86
2022/12/31 08:22:15;;;;;;;3.30;2.30;;;;;;;;;;5055083;28;20381;-86
2022/12/31 08:24:47;;;;;;;2.53;2.30;;;;;;;;;;5054901;28;20431;-86
2022/12/31 08:27:38;;;;;;;3.20;2.92;;;;;;;;;;5055000;28;20373;-86
2022/12/31 08:30:08;;;;;;;2.63;2.42;;;;;;;;;;5054663;28;20810;-87
2022/12/31 08:32:39;;;;;;;3.03;2.42;;;;;;;;;;5054804;28;20401;-86
2022/12/31 08:35:16;;;;;;;3.55;2.67;;;;;;;;;;5055055;28;20377;-87
2022/12/31 08:37:44;;;;;;;2.47;2.28;;;;;;;;;;5036871;28;20392;-87
2022/12/31 08:40:16;;;;;;;2.33;2.13;;;;;;;;;;5052616;28;20381;-86
2022/12/31 08:42:42;;;;;;;2.23;2.13;;;;;;;;;;5044807;28;20382;-86
2022/12/31 08:45:08;;;;;;;2.90;2.15;;;;;;;;;;5054495;28;20490;-88
2022/12/31 08:48:09;;;;;;;2.38;2.17;;;;;;;;;;5054531;28;20381;-86
2022/12/31 08:50:36;;;;;;;2.63;2.42;;;;;;;;;;4953229;28;20418;-86
2022/12/31 08:53:02;;;;;;;4.03;3.72;;;;;;;;;;5034285;28;20385;-86
2022/12/31 08:55:28;;;;;;;7.18;4.85;;;;;;;;;;5036414;28;20759;-86
2022/12/31 08:58:12;;;;;;;5.78;5.28;;;;;;;;;;5054320;28;20460;-86
2022/12/31 09:00:40;;;;;;;8.20;7.40;;;;;;;;;;5053792;28;20460;-86
2022/12/31 09:03:12;;;;;;;7.72;7.03;;;;;;;;;;5054202;28;20450;-87
2022/12/31 09:05:53;;;;;;;6.30;5.70;;;;;;;;;;5054146;28;21016;-87
2022/12/31 09:08:37;;;;;;;5.78;5.18;;;;;;;;;;5054201;28;20369;-87
2022/12/31 09:11:22;;;;;;;5.40;5.00;;;;;;;;;;5035606;28;20410;-85
2022/12/31 09:14:07;;;;;;;6.18;5.57;;;;;;;;;;5054022;28;20431;-86
2022/12/31 09:16:44;;;;;;;7.53;6.20;;;;;;;;;;5053937;28;20432;-86
2022/12/31 09:19:10;;;;;;;6.70;6.10;;;;;;;;;;5053908;28;20373;-87
2022/12/31 09:21:37;;;;;;;5.68;5.28;;;;;;;;;;5053876;28;20879;-87
2022/12/31 09:24:04;;;;;;;6.40;5.90;;;;;;;;;;5053750;28;20385;-87
2022/12/31 09:26:36;;;;;;;5.90;5.50;;;;;;;;;;5053689;28;20386;-86
2022/12/31 09:29:20;;;;;;;7.38;6.78;;;;;;;;;;5053644;28;20385;-87
2022/12/31 09:31:53;;;;;;;12.77;11.68;;;;;;;;;;5045123;28;20396;-87
2022/12/31 09:34:25;;;;;;;9.80;9.00;;;;;;;;;;5053564;28;20456;-87
2022/12/31 09:36:55;;;;;;;10.35;9.45;;;;;;;;;;5053522;28;20904;-86
2022/12/31 09:39:34;;;;;;;4.70;4.38;;;;;;;;;;5053483;28;20386;-86
2022/12/31 09:42:19;;;;;;;3.45;3.22;;;;;;;;;;5053771;28;20448;-86
2022/12/31 09:44:48;;;;;;;4.03;3.58;;;;;;;;;;5054661;28;20401;-86
2022/12/31 09:47:14;;;;;;;3.00;2.70;;;;;;;;;;5050262;28;20855;-87
2022/12/31 09:49:52;;;;;;;2.90;2.70;;;;;;;;;;5039255;28;20473;-87
2022/12/31 09:52:25;;;;;;;3.25;2.90;;;;;;;;;;5053267;28;20404;-87
2022/12/31 09:54:51;;;;;;;3.05;2.80;;;;;;;;;;5053233;28;20401;-86
2022/12/31 09:57:17;;;;;;;3.25;2.95;;;;;;;;;;5044839;28;20387;-87
2022/12/31 09:59:55;;;;;;;3.17;2.80;;;;;;;;;;5052924;28;20455;-86
2022/12/31 10:02:39;;;;;;;3.28;3.03;;;;;;;;;;5053231;28;20421;-86
2022/12/31 10:05:20;;;;;;;3.35;2.30;;;;;;;;;;5041440;28;20413;-85
2022/12/31 10:07:52;;;;;;;2.10;2.00;;;;;;;;;;5035370;28;20378;-87
2022/12/31 10:10:38;;;;;;;2.30;2.15;;;;;;;;;;5052914;28;20404;-87
2022/12/31 10:13:13;;;;;;;2.17;2.08;;;;;;;;;;5035303;28;20393;-87
2022/12/31 10:15:58;;;;;;;2.30;2.10;;;;;;;;;;5037055;28;20735;-87
2022/12/31 10:18:26;;;;;;;2.10;2.00;;;;;;;;;;5055343;28;20381;-86
2022/12/31 10:20:58;;;;;;;2.13;1.92;;;;;;;;;;5035117;28;20393;-86
2022/12/31 10:23:34;;;;;;;2.08;1.55;;;;;;;;;;5054086;28;20378;-86
2022/12/31 10:26:19;;;;;;;1.85;1.40;;;;;;;;;;5052545;28;20409;-85
2022/12/31 10:28:55;;;;;;;1.70;1.60;;;;;;;;;;5052645;28;20373;-86
2022/12/31 10:31:44;;;;;;;1.80;1.70;;;;;;;;;;5052061;28;20380;-87
2022/12/31 10:34:19;;;;;;;2.17;1.97;;;;;;;;;;5039568;28;20429;-86
2022/12/31 10:36:54;;;;;;;3.65;1.80;;;;;;;;;;5052462;28;20400;-86
2022/12/31 10:39:29;;;;;;;1.90;1.73;;;;;;;;;;5052436;28;20901;-85
2022/12/31 10:42:05;;;;;;;1.67;1.17;;;;;;;;;;5049996;28;20378;-86
2022/12/31 10:44:45;;;;;;;1.25;1.05;;;;;;;;;;5043230;28;20491;-86
2022/12/31 10:47:30;;;;;;;1.88;1.48;;;;;;;;;;5052228;28;20377;-86
2022/12/31 10:49:58;;;;;;;1.00;0.90;;;;;;;;;;5045728;28;20372;-85
2022/12/31 10:52:33;;;;;;;1.63;1.53;;;;;;;;;;5030471;28;20501;-86
2022/12/31 10:55:18;;;;;;;1.20;1.10;;;;;;;;;;5052218;28;20443;-86
2022/12/31 10:58:02;;;;;;;1.20;1.10;;;;;;;;;;5052052;28;20405;-86
2022/12/31 11:00:51;;;;;;;1.60;1.10;;;;;;;;;;5045586;28;20479;-85
2022/12/31 11:03:26;;;;;;;1.60;0.80;;;;;;;;;;5052125;28;20863;-85
2022/12/31 11:05:58;;;;;;;1.27;1.00;;;;;;;;;;5034041;28;20420;-86
2022/12/31 11:08:38;;;;;;;0.80;0.80;;;;;;;;;;5051516;28;21565;-85
2022/12/31 11:11:19;;;;;;;1.60;1.42;;;;;;;;;;5051788;28;20378;-85
2022/12/31 11:13:54;;;;;;;1.57;1.37;;;;;;;;;;5051916;28;20403;-86
2022/12/31 11:16:39;;;;;;;1.08;0.80;;;;;;;;;;5051840;28;20378;-86
2022/12/31 11:19:11;;;;;;;1.90;0.90;;;;;;;;;;5051670;28;20388;-86
2022/12/31 11:21:46;;;;;;;0.90;0.70;;;;;;;;;;5051741;28;20378;-85
2022/12/31 11:24:12;;;;;;;0.90;0.80;;;;;;;;;;5033862;28;20751;-85
2022/12/31 11:26:49;;;;;;;1.20;0.80;;;;;;;;;;5053228;28;20385;-86
2022/12/31 11:29:38;;;;;;;1.40;1.00;;;;;;;;;;5051608;28;20374;-86
2022/12/31 11:32:06;;;;;;;1.67;1.10;;;;;;;;;;5042533;28;20373;-85
2022/12/31 11:34:51;;;;;;;1.60;1.10;;;;;;;;;;5051317;28;20928;-85
2022/12/31 11:37:35;;;;;;;1.20;1.10;;;;;;;;;;5051624;28;20434;-86
2022/12/31 11:40:14;;;;;;;1.30;1.20;;;;;;;;;;5051360;28;20377;-86
2022/12/31 11:42:45;;;;;;;1.35;0.90;;;;;;;;;;5048563;28;20394;-86
2022/12/31 11:45:22;;;;;;;1.85;1.02;;;;;;;;;;5051493;28;20912;-86
2022/12/31 11:48:02;;;;;;;1.25;1.08;;;;;;;;;;5051600;28;20378;-86
2022/12/31 11:50:28;;;;;;;1.02;0.90;;;;;;;;;;5041885;28;20384;-85
2022/12/31 11:52:54;;;;;;;2.30;1.25;;;;;;;;;;5051538;28;20907;-85
2022/12/31 11:55:26;;;;;;;1.40;1.30;;;;;;;;;;5051390;28;20476;-86
2022/12/31 11:57:52;;;;;;;1.30;1.20;;;;;;;;;;5051452;28;20394;-86
2022/12/31 12:00:19;;;;;;;1.00;0.90;;;;;;;;;;5051171;28;20397;-85
2022/12/31 12:02:49;;;;;;;3.17;2.88;;;;;;;;;;5051430;28;20472;-85
2022/12/31 12:05:17;;;;;;;3.70;3.40;;;;;;;;;;5051195;28;20401;-85
2022/12/31 12:07:43;;;;;;;3.05;2.72;;;;;;;;;;5051269;28;20461;-86
2022/12/31 12:10:22;;;;;;;2.90;2.30;;;;;;;;;;5051196;28;20867;-86
2022/12/31 12:12:48;;;;;;;2.03;1.85;;;;;;;;;;5051242;28;20385;-86
2022/12/31 12:15:21;;;;;;;2.10;2.00;;;;;;;;;;5051270;28;20515;-85
2022/12/31 12:17:49;;;;;;;2.28;2.00;;;;;;;;;;5051076;28;20937;-85
2022/12/31 12:20:18;;;;;;;2.20;2.00;;;;;;;;;;5051182;28;20385;-85
2022/12/31 12:22:51;;;;;;;1.90;1.80;;;;;;;;;;5051186;28;20381;-85
2022/12/31 12:25:19;;;;;;;1.40;1.30;;;;;;;;;;5051147;28;20424;-85
2022/12/31 12:27:45;;;;;;;1.63;1.40;;;;;;;;;;5051182;28;20384;-85
2022/12/31 12:30:22;;;;;;;1.50;1.40;;;;;;;;;;5051042;28;20382;-86
2022/12/31 12:32:56;;;;;;;1.90;1.80;;;;;;;;;;5025936;28;20735;-85
2022/12/31 12:35:27;;;;;;;1.98;1.60;;;;;;;;;;5050977;28;20397;-86
2022/12/31 12:38:19;;;;;;;2.00;1.60;;;;;;;;;;5051090;28;20437;-85
2022/12/31 12:40:58;;;;;;;1.50;1.20;;;;;;;;;;5046572;28;20417;-86
2022/12/31 12:43:26;;;;;;;2.55;1.60;;;;;;;;;;5050970;28;20466;-85
2022/12/31 12:45:52;;;;;;;2.70;2.45;;;;;;;;;;5050855;28;20409;-85
2022/12/31 12:48:21;;;;;;;2.65;2.30;;;;;;;;;;5054328;28;20401;-86
2022/12/31 12:50:48;;;;;;;3.50;1.80;;;;;;;;;;5047722;28;20383;-85
2022/12/31 12:53:19;;;;;;;2.17;1.60;;;;;;;;;;5053057;28;20433;-85
2022/12/31 12:55:57;;;;;;;2.00;1.52;;;;;;;;;;5050330;28;20461;-86
2022/12/31 12:58:26;;;;;;;1.40;1.30;;;;;;;;;;5054382;28;20708;-86
2022/12/31 13:01:01;;;;;;;2.65;1.58;;;;;;;;;;5052435;28;20435;-85
2022/12/31 13:03:46;;;;;;;1.40;1.30;;;;;;;;;;5054228;28;20779;-85
2022/12/31 13:06:15;;;;;;;1.80;1.50;;;;;;;;;;5054145;28;20500;-85
2022/12/31 13:08:55;;;;;;;1.40;1.30;;;;;;;;;;5054282;28;20457;-85
2022/12/31 13:11:30;;;;;;;1.50;1.40;;;;;;;;;;5036204;28;20755;-86
2022/12/31 13:13:56;;;;;;;2.40;2.20;;;;;;;;;;5054102;28;20404;-86
2022/12/31 13:16:29;;;;;;;2.13;2.03;;;;;;;;;;5054003;28;20400;-85
2022/12/31 13:19:04;;;;;;;2.20;2.00;;;;;;;;;;5053940;28;20400;-85
2022/12/31 13:21:30;;;;;;;2.20;2.00;;;;;;;;;;5053903;28;20874;-86
2022/12/31 13:23:58;;;;;;;3.83;3.53;;;;;;;;;;5053939;28;20886;-86
2022/12/31 13:26:27;;;;;;;5.22;4.80;;;;;;;;;;5053680;28;20935;-85
2022/12/31 13:28:54;;;;;;;4.68;4.28;;;;;;;;;;5053761;28;20397;-86
2022/12/31 13:31:29;;;;;;;4.25;3.33;;;;;;;;;;5053510;28;20378;-86
2022/12/31 13:34:04;;;;;;;4.15;3.78;;;;;;;;;;5053615;28;20914;-85
2022/12/31 13:36:31;;;;;;;3.95;3.65;;;;;;;;;;5053521;28;20469;-85
2022/12/31 13:39:00;;;;;;;4.30;3.63;;;;;;;;;;5053540;28;20373;-86
2022/12/31 13:41:28;;;;;;;2.65;2.45;;;;;;;;;;5053626;28;20431;-85
2022/12/31 13:44:04;;;;;;;2.10;1.90;;;;;;;;;;5046764;28;20386;-85
2022/12/31 13:46:48;;;;;;;2.00;1.80;;;;;;;;;;5053497;28;20409;-86
2022/12/31 13:49:18;;;;;;;1.67;1.58;;;;;;;;;;5046705;28;20916;-85
2022/12/31 13:51:46;;;;;;;1.92;1.83;;;;;;;;;;5053455;28;20373;-85
2022/12/31 13:54:15;;;;;;;2.30;2.10;;;;;;;;;;5053289;28;20420;-85
2022/12/31 13:56:42;;;;;;;3.75;2.78;;;;;;;;;;5053312;28;20388;-85
2022/12/31 13:59:11;;;;;;;2.88;2.58;;;;;;;;;;5052821;28;20390;-86
2022/12/31 14:01:49;;;;;;;3.03;2.65;;;;;;;;;;5053062;28;20405;-85
2022/12/31 14:04:22;;;;;;;2.90;2.70;;;;;;;;;;5035131;28;20758;-86
2022/12/31 14:06:56;;;;;;;3.05;2.80;;;;;;;;;;5053166;28;20378;-85
2022/12/31 14:09:24;;;;;;;4.00;3.70;;;;;;;;;;5052830;28;20390;-85
2022/12/31 14:12:09;;;;;;;4.35;4.00;;;;;;;;;;5052993;28;20382;-85
2022/12/31 14:14:40;;;;;;;3.85;3.55;;;;;;;;;;5052797;28;20378;-85
2022/12/31 14:17:06;;;;;;;4.95;4.50;;;;;;;;;;5052901;28;20389;-85
2022/12/31 14:19:32;;;;;;;5.90;5.45;;;;;;;;;;5052695;28;20389;-86
2022/12/31 14:22:10;;;;;;;8.63;7.93;;;;;;;;;;5052796;28;20385;-85
2022/12/31 14:24:43;;;;;;;5.40;4.90;;;;;;;;;;5052549;28;20413;-85
2022/12/31 14:27:13;;;;;;;3.47;3.17;;;;;;;;;;5052752;28;20408;-86
2022/12/31 14:29:59;;;;;;;3.70;3.40;;;;;;;;;;5052469;28;20385;-85
2022/12/31 14:32:43;;;;;;;7.05;5.70;;;;;;;;;;5052416;28;20388;-85
2022/12/31 14:35:39;;;;;;;5.03;4.10;;;;;;;;;;5052490;28;20928;-85
2022/12/31 14:38:14;;;;;;;4.90;4.43;;;;;;;;;;5031704;28;20937;-86
2022/12/31 14:40:49;;;;;;;6.28;5.68;;;;;;;;;;5052378;28;20416;-86
2022/12/31 14:43:26;;;;;;;9.05;8.13;;;;;;;;;;5052333;28;20405;-85
2022/12/31 14:45:52;;;;;;;12.88;11.57;;;;;;;;;;5034448;28;20417;-85
2022/12/31 14:48:37;;;;;;;11.30;10.23;;;;;;;;;;5052325;28;20373;-85
2022/12/31 14:51:04;;;;;;;8.40;7.70;;;;;;;;;;5050397;28;20406;-85
2022/12/31 14:53:30;;;;;;;6.07;5.57;;;;;;;;;;5019816;28;20859;-86
2022/12/31 14:56:04;;;;;;;7.43;6.82;;;;;;;;;;5049211;28;20382;-86
2022/12/31 14:58:34;;;;;;;7.50;6.90;;;;;;;;;;5052038;28;20386;-86
2022/12/31 15:01:07;;;;;;;6.90;6.30;;;;;;;;;;5051731;28;20417;-85
2022/12/31 15:03:36;;;;;;;6.60;6.00;;;;;;;;;;5052070;28;20381;-85
2022/12/31 15:06:14;;;;;;;10.68;9.77;;;;;;;;;;5051778;28;20520;-85
2022/12/31 15:08:53;;;;;;;31.90;28.45;;;;;;;;;;5051805;28;20374;-86
2022/12/31 15:11:22;;;;;;;32.50;29.10;;;;;;;;;;5051692;28;20867;-85
2022/12/31 15:13:51;;;;;;;24.27;21.77;;;;;;;;;;5051882;28;20374;-86
2022/12/31 15:16:41;;;;;;;39.97;33.80;;;;;;;;;;5051743;28;20387;-86